createdAt,value
2022-10-12T05:08:12.499Z,22.53
2022-10-12T05:10:40.614Z,23.43
2022-10-12T05:13:08.558Z,20.57
2022-10-12T05:15:36.515Z,21.43
2022-10-12T05:18:04.509Z,22.50
2022-10-12T05:20:32.413Z,21.73
2022-10-12T05:23:00.570Z,20.57
2022-10-12T05:25:30.085Z,21.17
2022-10-12T05:27:58.219Z,21.20
2022-10-12T05:30:26.237Z,22.67
2022-10-12T05:32:54.090Z,20.80
2022-10-12T05:35:22.051Z,21.60
2022-10-12T05:37:50.085Z,22.52
2022-10-12T05:40:18.309Z,22.10
2022-10-12T05:42:47.470Z,21.70
2022-10-12T05:45:16.282Z,24.57
2022-10-12T05:47:44.339Z,22.87
2022-10-12T05:50:15.745Z,21.47
2022-10-12T05:52:43.793Z,23.70
2022-10-12T05:55:11.909Z,21.73
2022-10-12T05:57:40.185Z,22.30
2022-10-12T06:00:10.997Z,18.97
2022-10-12T06:02:39.363Z,24.08
2022-10-12T06:05:08.134Z,22.70
2022-10-12T06:07:36.070Z,22.37
2022-10-12T06:10:04.733Z,22.83
2022-10-12T06:12:32.548Z,23.50
2022-10-12T06:15:00.751Z,22.83
2022-10-12T06:17:30.042Z,23.53
2022-10-12T06:19:58.351Z,23.60
2022-10-12T06:22:26.149Z,21.93
2022-10-12T06:24:54.007Z,20.43
2022-10-12T06:27:22.179Z,21.43
2022-10-12T06:29:50.054Z,20.70
2022-10-12T06:32:18.016Z,23.80
2022-10-12T06:34:47.174Z,19.83
2022-10-12T06:37:37.172Z,21.50
2022-10-12T06:40:03.066Z,20.50
2022-10-12T06:42:31.048Z,22.10
2022-10-12T06:44:58.879Z,21.93
2022-10-12T06:47:26.715Z,20.50
2022-10-12T06:49:56.151Z,19.50
2022-10-12T06:52:24.094Z,20.50
2022-10-12T06:54:52.019Z,19.20
2022-10-12T06:57:19.921Z,19.10
2022-10-12T06:59:47.792Z,20.60
2022-10-12T07:02:15.684Z,21.67
2022-10-12T07:04:43.536Z,18.03
2022-10-12T07:07:12.806Z,19.40
2022-10-12T07:09:40.795Z,17.73
2022-10-12T07:12:08.787Z,18.43
2022-10-12T07:14:36.616Z,18.87
2022-10-12T07:17:04.859Z,20.23
2022-10-12T07:19:32.912Z,16.70
2022-10-12T07:22:00.878Z,17.97
2022-10-12T07:24:36.308Z,17.10
2022-10-12T07:27:05.015Z,17.10
2022-10-12T07:29:33.105Z,16.10
2022-10-12T07:32:01.732Z,18.27
2022-10-12T07:34:30.106Z,17.40
2022-10-12T07:36:59.742Z,16.10
2022-10-12T07:39:29.384Z,17.60
2022-10-12T07:41:57.355Z,16.90
2022-10-12T07:44:25.545Z,18.07
2022-10-12T07:46:53.607Z,16.77
2022-10-12T07:49:21.591Z,14.93
2022-10-12T07:51:49.516Z,16.80
2022-10-12T07:54:21.067Z,18.10
2022-10-12T07:56:51.098Z,15.67
2022-10-12T07:59:19.002Z,16.87
2022-10-12T08:01:46.933Z,17.00
2022-10-12T08:04:15.019Z,16.23
2022-10-12T08:06:44.654Z,17.70
2022-10-12T08:09:12.511Z,17.60
2022-10-12T08:11:42.009Z,15.47
2022-10-12T08:14:15.563Z,16.23
2022-10-12T08:16:43.893Z,16.33
2022-10-12T08:19:12.785Z,16.07
2022-10-12T08:21:41.156Z,17.13
2022-10-12T08:24:09.560Z,16.57
2022-10-12T08:26:37.662Z,19.57
2022-10-12T08:29:06.535Z,17.13
2022-10-12T08:31:36.276Z,16.17
2022-10-12T08:34:04.748Z,15.60
2022-10-12T08:36:32.807Z,16.63
2022-10-12T08:39:00.742Z,17.53
2022-10-12T08:41:41.294Z,17.27
2022-10-12T08:44:34.784Z,16.00
2022-10-12T08:47:07.735Z,16.20
2022-10-12T08:49:40.096Z,17.73
2022-10-12T08:52:23.733Z,16.80
2022-10-12T08:54:51.974Z,16.23
2022-10-12T08:57:20.835Z,17.07
2022-10-12T08:59:48.972Z,16.40
2022-10-12T09:02:38.363Z,14.90
2022-10-12T09:05:10.785Z,15.37
2022-10-12T09:07:43.185Z,15.50
2022-10-12T09:10:27.919Z,15.00
2022-10-12T09:13:03.378Z,15.27
2022-10-12T09:15:33.962Z,15.53
2022-10-12T09:18:06.576Z,15.77
2022-10-12T09:20:42.248Z,14.07
2022-10-12T09:23:25.285Z,15.00
2022-10-12T09:25:55.835Z,13.53
2022-10-12T09:28:30.638Z,13.20
2022-10-12T09:31:08.385Z,13.07
2022-10-12T09:33:42.837Z,12.90
2022-10-12T09:36:13.551Z,11.90
2022-10-12T09:38:41.479Z,13.90
2022-10-12T09:41:17.582Z,13.40
2022-10-12T09:43:46.335Z,12.40
2022-10-12T09:46:17.079Z,13.00
2022-10-12T09:48:59.910Z,12.73
2022-10-12T09:51:29.978Z,14.43
2022-10-12T09:54:03.182Z,11.53
2022-10-12T09:56:39.812Z,11.13
2022-10-12T09:59:20.712Z,12.87
2022-10-12T10:01:59.659Z,12.83
2022-10-12T10:04:29.913Z,12.70
2022-10-12T10:07:14.485Z,11.00
2022-10-12T10:09:42.589Z,11.70
2022-10-12T10:12:21.056Z,10.93
2022-10-12T10:14:49.594Z,11.40
2022-10-12T10:17:24.294Z,11.37
2022-10-12T10:19:54.615Z,11.17
2022-10-12T10:22:24.056Z,10.03
2022-10-12T10:24:57.541Z,12.20
2022-10-12T10:27:34.642Z,10.27
2022-10-12T10:30:40.871Z,10.73
2022-10-12T10:33:15.935Z,10.43
2022-10-12T10:35:58.152Z,10.90
2022-10-12T10:38:26.224Z,11.40
2022-10-12T10:40:57.675Z,10.73
2022-10-12T10:43:28.802Z,11.13
2022-10-12T10:46:00.862Z,13.17
2022-10-12T10:48:31.491Z,10.57
2022-10-12T10:51:02.962Z,12.03
2022-10-12T10:53:33.918Z,12.10
2022-10-12T10:56:06.606Z,11.73
2022-10-12T10:58:38.711Z,10.87
2022-10-12T11:01:26.262Z,10.53
2022-10-12T11:04:01.102Z,10.30
2022-10-12T11:06:39.315Z,11.20
2022-10-12T11:09:12.816Z,10.70
2022-10-12T11:11:44.016Z,11.77
2022-10-12T11:14:17.428Z,11.25
2022-10-12T11:16:48.125Z,11.53
2022-10-12T11:19:25.391Z,11.60
2022-10-12T11:21:58.844Z,12.10
2022-10-12T11:24:30.456Z,11.20
2022-10-12T11:27:03.998Z,10.73
2022-10-12T11:29:31.899Z,10.73
2022-10-12T11:32:04.381Z,11.73
2022-10-12T11:34:49.441Z,11.47
2022-10-12T11:37:21.410Z,11.80
2022-10-12T11:39:52.178Z,10.47
2022-10-12T11:42:30.132Z,12.10
2022-10-12T11:45:00.387Z,11.40
2022-10-12T11:47:35.572Z,10.60
2022-10-12T11:50:08.610Z,10.83
2022-10-12T11:52:41.922Z,10.73
2022-10-12T11:55:36.948Z,10.17
2022-10-12T11:58:13.493Z,10.93
2022-10-12T12:00:51.841Z,10.50
2022-10-12T12:03:30.009Z,9.57
2022-10-12T12:06:17.918Z,9.33
2022-10-12T12:09:00.123Z,9.50
2022-10-12T12:11:30.178Z,10.17
2022-10-12T12:14:31.498Z,8.67
2022-10-12T12:17:15.781Z,8.63
2022-10-12T12:19:45.534Z,10.15
2022-10-12T12:22:23.439Z,9.60
2022-10-12T12:25:20.457Z,10.07
2022-10-12T12:27:51.574Z,8.30
2022-10-12T12:30:27.111Z,9.97
2022-10-12T12:32:57.695Z,9.27
2022-10-12T12:35:32.397Z,9.70
2022-10-12T12:38:17.099Z,9.83
2022-10-12T12:40:58.935Z,10.03
2022-10-12T12:43:58.563Z,9.53
2022-10-12T12:46:43.678Z,9.43
2022-10-12T12:49:29.653Z,9.80
2022-10-12T12:51:59.940Z,9.93
2022-10-12T12:54:28.728Z,10.63
2022-10-12T12:57:34.086Z,9.97
2022-10-12T13:00:15.517Z,9.43
2022-10-12T13:03:35.357Z,10.03
2022-10-12T13:06:41.175Z,8.60
2022-10-12T13:09:42.345Z,10.17
2022-10-12T13:13:07.454Z,9.40
2022-10-12T13:15:49.757Z,9.93
2022-10-12T13:18:48.816Z,8.20
2022-10-12T13:21:20.681Z,8.83
2022-10-12T13:23:51.690Z,9.30
2022-10-12T13:26:24.521Z,8.67
2022-10-12T13:28:53.322Z,8.80
2022-10-12T13:31:27.665Z,9.53
2022-10-12T13:34:03.914Z,8.90
2022-10-12T13:36:33.355Z,10.53
2022-10-12T13:39:09.811Z,9.17
2022-10-12T13:41:38.076Z,8.50
2022-10-12T13:44:07.961Z,8.43
2022-10-12T13:46:41.668Z,9.10
2022-10-12T13:49:17.593Z,7.97
2022-10-12T13:51:47.653Z,8.60
2022-10-12T13:54:17.227Z,8.53
2022-10-12T13:56:47.027Z,9.13
2022-10-12T13:59:19.103Z,9.37
2022-10-12T14:01:57.808Z,10.03
2022-10-12T14:04:30.186Z,8.50
2022-10-12T14:07:02.978Z,9.97
2022-10-12T14:09:40.669Z,7.80
2022-10-12T14:12:09.504Z,8.10
2022-10-12T14:14:39.812Z,8.50
2022-10-12T14:17:14.358Z,8.53
2022-10-12T14:19:47.851Z,9.17
2022-10-12T14:22:24.116Z,8.13
2022-10-12T14:24:53.967Z,8.50
2022-10-12T14:27:25.721Z,7.57
2022-10-12T14:29:58.719Z,8.07
2022-10-12T14:32:41.759Z,10.20
2022-10-12T14:35:22.411Z,8.20
2022-10-12T14:37:52.143Z,8.37
2022-10-12T14:40:33.317Z,8.70
2022-10-12T14:43:04.722Z,9.03
2022-10-12T14:45:33.569Z,7.80
2022-10-12T14:48:04.947Z,8.87
2022-10-12T14:50:33.772Z,8.10
2022-10-12T14:53:04.964Z,9.37
2022-10-12T14:55:35.021Z,10.17
2022-10-12T14:58:03.717Z,9.43
2022-10-12T15:00:33.793Z,9.33
2022-10-12T15:03:04.723Z,9.90
2022-10-12T15:05:34.232Z,9.00
2022-10-12T15:08:07.202Z,9.90
2022-10-12T15:10:35.864Z,9.70
2022-10-12T15:13:03.816Z,10.80
2022-10-12T15:15:39.827Z,9.97
2022-10-12T15:18:09.429Z,8.47
2022-10-12T15:20:38.478Z,8.90
2022-10-12T15:23:06.697Z,11.27
2022-10-12T15:25:42.600Z,10.13
2022-10-12T15:28:11.100Z,10.60
2022-10-12T15:30:52.155Z,9.10
2022-10-12T15:33:27.112Z,10.67
2022-10-12T15:35:54.998Z,9.33
2022-10-12T15:38:23.160Z,12.13
2022-10-12T15:40:52.781Z,11.47
2022-10-12T15:43:20.891Z,11.27
2022-10-12T15:45:50.308Z,10.63
2022-10-12T15:48:18.249Z,12.47
2022-10-12T15:50:49.844Z,11.47
2022-10-12T15:53:20.988Z,10.40
2022-10-12T15:55:48.986Z,11.00
2022-10-12T15:58:16.915Z,10.53
2022-10-12T16:00:44.872Z,11.10
2022-10-12T16:03:20.114Z,11.07
2022-10-12T16:05:52.187Z,10.50
2022-10-12T16:08:20.289Z,8.90
2022-10-12T16:10:48.929Z,9.87
2022-10-12T16:13:17.465Z,10.33
2022-10-12T16:15:45.433Z,10.93
2022-10-12T16:18:15.423Z,9.77
2022-10-12T16:20:46.640Z,9.73
2022-10-12T16:23:23.421Z,11.30
2022-10-12T16:25:51.592Z,11.47
2022-10-12T16:28:19.794Z,10.53
2022-10-12T16:30:49.023Z,11.63
2022-10-12T16:33:17.106Z,11.47
2022-10-12T16:35:46.697Z,10.60
2022-10-12T16:38:15.188Z,11.23
2022-10-12T16:40:44.644Z,10.67
2022-10-12T16:43:13.126Z,11.47
2022-10-12T16:45:41.154Z,15.60
2022-10-12T16:48:09.206Z,10.10
2022-10-12T16:50:40.932Z,11.60
2022-10-12T16:53:09.539Z,10.90
2022-10-12T16:55:40.077Z,11.07
2022-10-12T16:58:09.406Z,10.80
2022-10-12T17:00:37.601Z,10.53
2022-10-12T17:03:05.596Z,11.10
2022-10-12T17:05:33.469Z,11.40
2022-10-12T17:08:01.542Z,10.20
2022-10-12T17:10:29.479Z,9.83
2022-10-12T17:12:57.723Z,10.07
2022-10-12T17:15:26.956Z,9.10
2022-10-12T17:17:56.348Z,11.10
2022-10-12T17:20:24.398Z,10.30
2022-10-12T17:22:52.399Z,10.50
2022-10-12T17:25:20.311Z,10.63
2022-10-12T17:27:48.197Z,9.77
2022-10-12T17:30:16.376Z,12.03
2022-10-12T17:32:45.564Z,10.33
2022-10-12T17:35:13.616Z,9.97
2022-10-12T17:37:41.649Z,9.85
2022-10-12T17:40:10.956Z,10.67
2022-10-12T17:42:39.012Z,9.60
2022-10-12T17:45:08.005Z,10.70
2022-10-12T17:47:36.130Z,10.27
2022-10-12T17:50:06.223Z,10.20
2022-10-12T17:52:39.459Z,10.70
2022-10-12T17:55:19.256Z,10.07
2022-10-12T17:57:52.330Z,11.10
2022-10-12T18:00:20.309Z,10.67
2022-10-12T18:02:48.384Z,9.67
2022-10-12T18:05:17.803Z,10.93
2022-10-12T18:07:45.823Z,10.63
2022-10-12T18:10:14.101Z,10.60
2022-10-12T18:12:41.950Z,9.30
2022-10-12T18:15:10.657Z,11.27
2022-10-12T18:17:38.818Z,10.47
2022-10-12T18:20:07.818Z,10.82
2022-10-12T18:22:37.048Z,10.17
2022-10-12T18:25:05.631Z,10.83
2022-10-12T18:27:35.000Z,10.60
2022-10-12T18:30:02.948Z,9.50
2022-10-12T18:32:30.865Z,10.17
2022-10-12T18:34:58.868Z,11.67
2022-10-12T18:37:26.747Z,9.60
2022-10-12T18:39:56.141Z,9.63
2022-10-12T18:42:24.115Z,11.00
2022-10-12T18:44:51.974Z,11.33
2022-10-12T18:47:24.191Z,10.67
2022-10-12T18:49:52.343Z,10.50
2022-10-12T18:52:20.891Z,11.33
2022-10-12T18:54:51.331Z,10.53
2022-10-12T18:57:20.857Z,10.13
2022-10-12T18:59:50.829Z,10.10
2022-10-12T19:02:20.720Z,10.40
2022-10-12T19:04:49.085Z,10.57
2022-10-12T19:07:17.500Z,11.83
2022-10-12T19:09:45.929Z,11.10
2022-10-12T19:12:16.928Z,11.70
2022-10-12T19:14:47.736Z,11.33
2022-10-12T19:17:15.955Z,10.63
2022-10-12T19:19:44.144Z,11.40
2022-10-12T19:22:12.119Z,11.03
2022-10-12T19:24:40.110Z,11.17
2022-10-12T19:27:08.191Z,11.37
2022-10-12T19:29:36.052Z,9.50
2022-10-12T19:32:05.464Z,11.20
2022-10-12T19:34:33.407Z,9.87
2022-10-12T19:37:02.332Z,11.57
2022-10-12T19:39:31.961Z,11.80
2022-10-12T19:41:59.817Z,11.27
2022-10-12T19:44:27.783Z,12.80
2022-10-12T19:46:57.617Z,10.03
2022-10-12T19:49:26.995Z,11.53
2022-10-12T19:51:54.924Z,12.13
2022-10-12T19:54:22.818Z,10.80
2022-10-12T19:56:50.793Z,11.37
2022-10-12T19:59:18.592Z,10.07
2022-10-12T20:01:48.283Z,10.30
2022-10-12T20:04:16.967Z,11.67
2022-10-12T20:06:46.186Z,10.97
2022-10-12T20:09:14.158Z,10.47
2022-10-12T20:11:41.969Z,9.80
2022-10-12T20:14:11.107Z,11.73
2022-10-12T20:16:39.360Z,10.83
2022-10-12T20:19:07.519Z,10.30
2022-10-12T20:21:36.604Z,11.30
2022-10-12T20:24:08.778Z,9.90
2022-10-12T20:26:36.738Z,11.80
2022-10-12T20:29:04.722Z,12.93
2022-10-12T20:31:32.528Z,11.23
2022-10-12T20:34:00.493Z,11.47
2022-10-12T20:36:30.532Z,11.60
2022-10-12T20:38:58.772Z,10.70
2022-10-12T20:41:28.670Z,11.97
2022-10-12T20:43:58.337Z,13.68
2022-10-12T20:46:27.654Z,13.60
2022-10-12T20:48:58.893Z,11.95
2022-10-12T20:51:29.454Z,12.32
2022-10-12T20:53:59.416Z,11.97
2022-10-12T20:56:28.710Z,11.60
2022-10-12T20:58:56.628Z,11.97
2022-10-12T21:01:25.941Z,13.00
2022-10-12T21:03:54.163Z,11.70
2022-10-12T21:06:23.431Z,11.20
2022-10-12T21:08:52.084Z,12.67
2022-10-12T21:11:19.995Z,12.73
2022-10-12T21:13:49.477Z,12.33
2022-10-12T21:16:17.930Z,11.80
2022-10-12T21:18:45.818Z,11.80
2022-10-12T21:21:16.127Z,12.70
2022-10-12T21:23:45.311Z,12.07
2022-10-12T21:26:15.001Z,12.50
2022-10-12T21:28:43.186Z,12.30
2022-10-12T21:31:13.132Z,12.50
2022-10-12T21:33:41.325Z,13.63
2022-10-12T21:36:10.935Z,12.40
